Time;durP1;ratioP1;P1;durP2;ratioP2;P2;SDS_P1;SDS_P2;PMS_P1;PMS_P2;Temp;Humidity;BMP_temperature;BMP_pressure;BME280_temperature;BME280_humidity;BME280_pressure;Samples;Min_cycle;Max_cycle;Signal;HPM_P1;HPM_P2
2023/07/26 00:01:10;;;;;;;5.40;2.90;;;12.20;91.40;;;;;;5037902;28;20059;-65
2023/07/26 00:03:36;;;;;;;5.28;2.70;;;12.10;91.50;;;;;;5040718;28;20602;-66
2023/07/26 00:06:02;;;;;;;6.78;2.95;;;12.10;91.60;;;;;;5039996;28;20125;-66
2023/07/26 00:08:27;;;;;;;6.80;3.20;;;12.20;91.90;;;;;;5054587;28;20072;-66
2023/07/26 00:10:53;;;;;;;3.70;2.60;;;12.10;92.10;;;;;;5044079;28;20136;-66
2023/07/26 00:13:18;;;;;;;4.68;3.08;;;12.10;92.20;;;;;;5043337;28;20043;-66
2023/07/26 00:15:44;;;;;;;5.53;2.72;;;12.10;92.40;;;;;;5062389;28;20036;-65
2023/07/26 00:18:09;;;;;;;6.70;3.10;;;12.10;92.60;;;;;;5039157;28;20032;-66
2023/07/26 00:20:35;;;;;;;6.32;3.45;;;12.10;92.70;;;;;;5062490;28;20207;-65
2023/07/26 00:23:02;;;;;;;6.28;3.35;;;12.00;92.80;;;;;;5058623;28;20058;-65
2023/07/26 00:25:28;;;;;;;5.38;2.97;;;12.00;93.00;;;;;;5031408;28;20036;-65
2023/07/26 00:27:54;;;;;;;5.80;3.08;;;11.90;93.10;;;;;;5058016;28;20037;-66
2023/07/26 00:30:19;;;;;;;6.13;3.13;;;11.90;93.30;;;;;;5044808;28;20032;-66
2023/07/26 00:32:45;;;;;;;6.70;3.13;;;11.90;93.40;;;;;;5057904;28;20578;-65
2023/07/26 00:35:21;;;;;;;6.45;3.00;;;11.90;93.70;;;;;;5061058;28;20032;-65
2023/07/26 00:37:48;;;;;;;7.22;3.50;;;11.90;94.60;;;;;;5040118;28;20156;-65
2023/07/26 00:40:14;;;;;;;6.40;3.22;;;11.90;94.40;;;;;;5061268;28;20047;-65
2023/07/26 00:42:39;;;;;;;7.55;3.70;;;11.90;94.70;;;;;;5056965;28;20049;-66
2023/07/26 00:45:05;;;;;;;7.63;4.05;;;11.90;94.80;;;;;;5045633;28;20048;-66
2023/07/26 00:47:31;;;;;;;6.32;3.42;;;12.00;95.10;;;;;;5058609;28;20043;-65
2023/07/26 00:49:57;;;;;;;4.63;3.80;;;12.00;95.10;;;;;;5063214;28;20070;-66
2023/07/26 00:52:25;;;;;;;6.13;3.60;;;12.10;95.30;;;;;;5038978;28;20171;-65
2023/07/26 00:54:52;;;;;;;5.78;3.50;;;12.10;95.40;;;;;;5059505;28;20056;-66
2023/07/26 00:57:17;;;;;;;8.02;3.53;;;12.10;95.50;;;;;;5057150;28;20029;-66
2023/07/26 00:59:43;;;;;;;5.00;3.45;;;12.10;95.50;;;;;;5038602;28;20059;-65
2023/07/26 01:02:09;;;;;;;5.05;3.35;;;12.10;95.70;;;;;;5026471;28;20040;-65
2023/07/26 01:04:34;;;;;;;7.85;3.40;;;12.10;95.80;;;;;;5059333;28;20671;-66
2023/07/26 01:07:13;;;;;;;5.28;3.38;;;12.10;95.90;;;;;;5052423;28;20037;-66
2023/07/26 01:09:51;;;;;;;7.53;3.25;;;12.20;96.80;;;;;;5040129;28;20058;-65
2023/07/26 01:12:22;;;;;;;7.32;3.80;;;12.20;96.70;;;;;;5055165;28;20049;-66
2023/07/26 01:15:07;;;;;;;5.55;3.13;;;12.20;97.20;;;;;;5037345;28;20123;-66
2023/07/26 01:17:32;;;;;;;5.85;3.28;;;12.30;98.50;;;;;;5052779;28;20472;-66
2023/07/26 01:19:58;;;;;;;7.43;3.40;;;12.30;96.80;;;;;;5039020;28;20120;-66
2023/07/26 01:22:24;;;;;;;5.22;2.95;;;12.40;97.10;;;;;;5055045;28;20032;-65
2023/07/26 01:24:49;;;;;;;6.88;3.25;;;12.40;97.00;;;;;;5036231;28;20436;-66
2023/07/26 01:27:15;;;;;;;6.72;3.70;;;12.40;97.00;;;;;;5039347;28;20048;-66
2023/07/26 01:29:41;;;;;;;8.30;3.85;;;12.40;97.00;;;;;;5045423;28;20060;-65
2023/07/26 01:32:09;;;;;;;8.43;3.40;;;12.40;97.20;;;;;;5045293;28;20433;-66
2023/07/26 01:34:36;;;;;;;5.97;3.30;;;12.40;97.50;;;;;;5060625;28;20063;-65
2023/07/26 01:37:02;;;;;;;6.97;3.70;;;12.50;97.60;;;;;;5060904;28;20120;-66
2023/07/26 01:39:28;;;;;;;7.55;3.42;;;12.50;97.70;;;;;;5043591;28;20391;-66
2023/07/26 01:41:55;;;;;;;9.32;3.70;;;12.60;97.70;;;;;;5036442;28;20075;-66
2023/07/26 01:44:20;;;;;;;8.40;3.60;;;12.60;97.60;;;;;;5050095;28;20135;-66
2023/07/26 01:46:46;;;;;;;4.93;3.65;;;12.60;97.70;;;;;;5060485;28;20138;-66
2023/07/26 01:49:12;;;;;;;8.27;3.70;;;12.60;97.80;;;;;;5052884;28;20036;-66
2023/07/26 01:51:38;;;;;;;5.93;3.53;;;12.60;97.90;;;;;;5059003;28;20037;-66
2023/07/26 01:54:04;;;;;;;5.57;3.40;;;12.60;98.00;;;;;;5045530;28;20048;-66
2023/07/26 01:56:29;;;;;;;6.20;3.63;;;12.60;98.10;;;;;;5058518;28;20437;-66
2023/07/26 01:58:55;;;;;;;5.35;3.53;;;12.60;98.30;;;;;;5041624;28;20112;-65
2023/07/26 02:01:20;;;;;;;6.32;3.38;;;12.60;98.40;;;;;;5056235;28;20033;-66
2023/07/26 02:03:46;;;;;;;5.00;3.30;;;12.50;98.40;;;;;;5040270;28;20051;-66
2023/07/26 02:06:12;;;;;;;7.70;3.67;;;12.50;98.40;;;;;;5062285;28;20112;-65
2023/07/26 02:08:38;;;;;;;7.05;3.63;;;12.50;98.60;;;;;;5061114;28;20090;-66
2023/07/26 02:11:03;;;;;;;6.88;3.30;;;12.50;98.70;;;;;;5059195;28;20045;-65
2023/07/26 02:13:29;;;;;;;6.72;3.28;;;12.50;98.70;;;;;;5056442;28;20117;-66
2023/07/26 02:15:54;;;;;;;9.07;4.20;;;12.40;98.80;;;;;;5065662;28;20047;-65
2023/07/26 02:18:22;;;;;;;7.32;2.95;;;12.40;98.80;;;;;;5059821;28;20132;-66
2023/07/26 02:20:47;;;;;;;6.47;3.00;;;12.30;99.00;;;;;;5049440;28;20040;-66
2023/07/26 02:23:13;;;;;;;5.80;3.13;;;12.30;98.90;;;;;;5054448;28;20100;-66
2023/07/26 02:25:38;;;;;;;7.32;3.53;;;12.30;99.00;;;;;;5055977;28;20082;-65
2023/07/26 02:28:04;;;;;;;7.20;3.35;;;12.30;99.20;;;;;;5057868;28;20037;-67
2023/07/26 02:30:29;;;;;;;6.50;3.20;;;12.20;99.10;;;;;;5057873;28;20540;-66
2023/07/26 02:32:55;;;;;;;4.35;2.90;;;12.20;99.30;;;;;;5048956;28;20516;-65
2023/07/26 02:35:20;;;;;;;7.07;3.20;;;12.20;99.30;;;;;;5057593;28;20140;-65
2023/07/26 02:37:46;;;;;;;8.05;3.33;;;12.20;99.40;;;;;;5063380;28;20040;-66
2023/07/26 02:40:12;;;;;;;5.47;3.35;;;12.10;99.40;;;;;;5064979;28;20033;-65
2023/07/26 02:42:38;;;;;;;8.55;3.70;;;12.10;99.50;;;;;;5062225;28;20115;-66
2023/07/26 02:45:04;;;;;;;4.72;2.85;;;12.00;99.30;;;;;;5058891;28;20230;-65
2023/07/26 02:47:32;;;;;;;4.88;3.47;;;12.00;99.40;;;;;;5047551;28;20089;-65
2023/07/26 02:50:00;;;;;;;3.70;2.78;;;11.90;99.50;;;;;;5063280;28;20083;-65
2023/07/26 02:52:25;;;;;;;6.07;3.28;;;11.90;99.60;;;;;;5027139;28;20064;-65
2023/07/26 02:54:51;;;;;;;6.13;3.47;;;11.80;99.70;;;;;;5060546;28;20041;-65
2023/07/26 02:57:16;;;;;;;5.15;3.20;;;11.80;99.90;;;;;;5028633;28;20036;-66
2023/07/26 02:59:42;;;;;;;10.07;3.78;;;11.80;99.90;;;;;;5064531;28;20040;-65
2023/07/26 03:02:08;;;;;;;6.72;3.75;;;11.70;99.90;;;;;;5061585;28;20040;-66
2023/07/26 03:04:33;;;;;;;7.70;4.07;;;11.70;99.90;;;;;;5045865;28;20105;-65
2023/07/26 03:06:59;;;;;;;5.95;3.03;;;11.60;99.90;;;;;;5058637;28;20070;-66
2023/07/26 03:09:24;;;;;;;8.60;3.40;;;11.60;99.90;;;;;;5060371;28;20044;-65
2023/07/26 03:11:50;;;;;;;5.57;3.38;;;11.50;99.90;;;;;;5046524;28;21485;-68
2023/07/26 03:14:15;;;;;;;6.68;3.40;;;11.50;99.90;;;;;;5058527;28;20076;-68
2023/07/26 03:16:41;;;;;;;5.45;2.90;;;11.40;99.90;;;;;;5064178;28;20036;-67
2023/07/26 03:19:06;;;;;;;5.43;3.20;;;11.40;99.90;;;;;;5064079;28;20127;-67
2023/07/26 03:21:32;;;;;;;7.50;3.70;;;11.40;99.90;;;;;;5052108;28;20040;-68
2023/07/26 03:23:58;;;;;;;6.75;4.00;;;11.40;99.90;;;;;;5061660;28;20519;-67
2023/07/26 03:26:23;;;;;;;9.60;3.75;;;11.30;99.90;;;;;;5066737;28;20033;-67
2023/07/26 03:28:49;;;;;;;5.07;3.25;;;11.30;99.90;;;;;;5067926;28;20036;-67
2023/07/26 03:31:14;;;;;;;7.28;3.88;;;11.20;99.90;;;;;;5046477;28;20059;-67
2023/07/26 03:33:40;;;;;;;8.55;4.10;;;11.20;99.90;;;;;;5046858;28;20037;-67
2023/07/26 03:36:06;;;;;;;6.45;3.22;;;11.20;99.90;;;;;;5067447;28;20056;-68
2023/07/26 03:38:31;;;;;;;6.32;3.42;;;11.10;99.90;;;;;;5048754;28;20041;-68
2023/07/26 03:40:57;;;;;;;6.38;3.55;;;11.20;99.90;;;;;;5048495;28;20044;-68
2023/07/26 03:43:22;;;;;;;9.90;3.80;;;11.20;99.90;;;;;;5066114;28;20060;-67
2023/07/26 03:45:48;;;;;;;6.68;3.55;;;11.20;99.90;;;;;;5048375;28;20052;-68
2023/07/26 03:48:14;;;;;;;6.15;4.03;;;11.20;99.90;;;;;;5048254;28;20033;-68
2023/07/26 03:50:39;;;;;;;7.28;4.50;;;11.20;99.90;;;;;;5046596;28;20040;-68
2023/07/26 03:53:05;;;;;;;8.15;4.03;;;11.30;99.90;;;;;;5065322;28;20111;-68
2023/07/26 03:55:30;;;;;;;6.80;3.92;;;11.30;99.90;;;;;;5044123;28;20052;-67
2023/07/26 03:57:57;;;;;;;6.40;4.15;;;11.30;99.90;;;;;;5049277;28;20064;-68
2023/07/26 04:00:22;;;;;;;9.25;5.00;;;11.40;99.90;;;;;;5065724;28;20456;-67
2023/07/26 04:02:48;;;;;;;7.50;4.20;;;11.40;99.90;;;;;;5063352;28;20041;-68
2023/07/26 04:05:13;;;;;;;6.00;4.38;;;11.40;99.90;;;;;;5065943;28;20135;-68
2023/07/26 04:07:40;;;;;;;7.82;3.72;;;11.50;99.90;;;;;;5037333;28;20044;-68
2023/07/26 04:10:06;;;;;;;6.50;4.32;;;11.60;99.90;;;;;;5070280;28;20044;-67
2023/07/26 04:12:32;;;;;;;8.70;4.57;;;11.60;99.90;;;;;;5068819;28;20388;-67
2023/07/26 04:14:57;;;;;;;9.80;3.97;;;11.70;99.90;;;;;;5048835;28;20036;-67
2023/07/26 04:17:23;;;;;;;6.50;3.88;;;11.90;99.90;;;;;;5056367;28;20032;-67
2023/07/26 04:19:48;;;;;;;8.30;5.07;;;12.00;99.90;;;;;;5039436;28;20436;-67
2023/07/26 04:22:14;;;;;;;7.43;4.22;;;12.00;99.90;;;;;;5042146;28;20031;-67
2023/07/26 04:24:44;;;;;;;7.32;4.13;;;12.00;99.90;;;;;;5056093;28;20098;-67
2023/07/26 04:27:09;;;;;;;7.38;4.43;;;11.90;99.90;;;;;;5040279;28;20080;-67
2023/07/26 04:29:35;;;;;;;6.82;4.55;;;12.00;99.90;;;;;;5048191;28;20063;-67
2023/07/26 04:32:01;;;;;;;9.57;3.90;;;11.90;99.90;;;;;;5059987;28;20117;-67
2023/07/26 04:34:26;;;;;;;10.32;4.70;;;11.90;99.90;;;;;;5037333;28;20076;-68
2023/07/26 04:36:52;;;;;;;5.82;4.93;;;11.90;99.90;;;;;;5042865;28;20521;-68
2023/07/26 04:39:17;;;;;;;9.02;5.00;;;11.90;99.90;;;;;;5042808;28;20040;-67
2023/07/26 04:41:43;;;;;;;9.80;4.72;;;11.90;99.90;;;;;;5066988;28;20133;-68
2023/07/26 04:44:09;;;;;;;7.43;5.05;;;11.90;99.90;;;;;;5040876;28;20052;-67
2023/07/26 04:46:35;;;;;;;12.30;4.72;;;11.90;99.90;;;;;;5044587;28;20040;-68
2023/07/26 04:49:00;;;;;;;9.30;5.07;;;11.90;99.90;;;;;;5045770;28;20452;-67
2023/07/26 04:51:26;;;;;;;7.28;4.93;;;11.90;99.90;;;;;;5057267;28;20122;-68
2023/07/26 04:53:51;;;;;;;7.30;4.68;;;11.80;99.90;;;;;;5055848;28;20040;-68
2023/07/26 04:56:17;;;;;;;8.15;4.65;;;11.90;99.90;;;;;;5042748;28;20135;-69
2023/07/26 04:58:43;;;;;;;9.82;4.93;;;11.90;99.90;;;;;;5039668;28;20029;-68
2023/07/26 05:01:09;;;;;;;7.68;4.35;;;11.90;99.90;;;;;;5042591;28;20498;-69
2023/07/26 05:03:36;;;;;;;5.68;3.90;;;11.90;99.90;;;;;;5060109;28;20053;-68
2023/07/26 05:06:02;;;;;;;7.75;4.07;;;11.90;99.90;;;;;;5054743;28;20068;-69
2023/07/26 05:08:28;;;;;;;8.50;4.45;;;11.90;99.90;;;;;;5045733;28;20133;-68
2023/07/26 05:10:54;;;;;;;6.03;3.78;;;12.00;99.90;;;;;;5060211;28;20048;-69
2023/07/26 05:13:20;;;;;;;7.72;3.97;;;12.00;99.90;;;;;;5042454;28;20094;-69
2023/07/26 05:15:47;;;;;;;6.70;3.78;;;11.90;99.90;;;;;;5040642;28;20048;-69
2023/07/26 05:18:14;;;;;;;7.50;3.60;;;11.90;99.90;;;;;;5045431;28;20333;-69
2023/07/26 05:20:41;;;;;;;7.72;3.63;;;12.00;99.90;;;;;;5035671;28;20064;-68
2023/07/26 05:23:06;;;;;;;7.22;3.45;;;11.90;99.90;;;;;;5056175;28;20143;-68
2023/07/26 05:25:32;;;;;;;5.22;3.35;;;11.90;99.90;;;;;;5041528;28;20151;-68
2023/07/26 05:27:58;;;;;;;6.60;3.63;;;11.80;99.90;;;;;;5049505;28;20044;-69
2023/07/26 05:30:23;;;;;;;4.80;3.30;;;11.90;99.90;;;;;;5065682;28;20037;-69
2023/07/26 05:32:49;;;;;;;5.65;3.10;;;11.90;99.90;;;;;;5042554;28;20039;-68
2023/07/26 05:35:15;;;;;;;6.50;3.45;;;12.00;99.90;;;;;;5066303;28;20080;-69
2023/07/26 05:37:41;;;;;;;4.45;3.55;;;12.30;99.90;;;;;;5039551;28;20401;-70
2023/07/26 05:40:07;;;;;;;6.05;3.10;;;12.50;99.90;;;;;;5042135;28;20115;-69
2023/07/26 05:42:33;;;;;;;5.35;3.03;;;12.50;99.90;;;;;;5041807;28;20387;-69
2023/07/26 05:44:58;;;;;;;4.18;3.20;;;12.50;99.90;;;;;;5031827;28;20152;-70
2023/07/26 05:47:24;;;;;;;5.60;2.90;;;12.50;99.90;;;;;;5058861;28;20148;-69
2023/07/26 05:49:50;;;;;;;5.32;2.78;;;12.60;99.90;;;;;;5031863;28;20453;-69
2023/07/26 05:52:16;;;;;;;4.90;2.92;;;12.50;99.90;;;;;;5022994;28;20052;-69
2023/07/26 05:54:41;;;;;;;4.15;2.50;;;12.60;99.90;;;;;;5033317;28;20044;-68
2023/07/26 05:57:07;;;;;;;6.15;2.85;;;12.60;99.90;;;;;;5048054;28;20404;-68
2023/07/26 05:59:33;;;;;;;3.85;2.50;;;12.70;99.90;;;;;;5056841;28;20091;-69
2023/07/26 06:01:58;;;;;;;5.15;2.78;;;12.60;99.90;;;;;;5045079;28;20032;-69
2023/07/26 06:04:24;;;;;;;3.85;2.47;;;12.60;99.90;;;;;;5049432;28;20043;-69
2023/07/26 06:06:50;;;;;;;5.50;2.58;;;12.80;99.90;;;;;;5037997;28;20049;-69
2023/07/26 06:09:16;;;;;;;5.18;2.45;;;12.90;99.90;;;;;;5054454;28;20028;-69
2023/07/26 06:11:42;;;;;;;4.75;2.28;;;12.90;99.90;;;;;;5044711;28;20032;-69
2023/07/26 06:14:08;;;;;;;4.95;2.40;;;13.00;99.90;;;;;;5039474;28;20505;-69
2023/07/26 06:16:34;;;;;;;7.00;2.40;;;13.00;99.90;;;;;;5046048;28;20136;-68
2023/07/26 06:18:59;;;;;;;3.95;2.40;;;13.00;99.90;;;;;;5054528;28;20048;-68
2023/07/26 06:21:25;;;;;;;3.97;2.97;;;13.00;99.90;;;;;;5020014;28;20396;-68
2023/07/26 06:23:50;;;;;;;6.18;2.83;;;12.90;99.90;;;;;;5055019;28;20041;-68
2023/07/26 06:26:16;;;;;;;4.85;2.92;;;12.80;99.90;;;;;;5040854;28;20128;-68
2023/07/26 06:28:42;;;;;;;4.30;2.50;;;12.80;99.90;;;;;;5053259;28;20127;-69
2023/07/26 06:31:08;;;;;;;3.55;2.60;;;12.80;99.90;;;;;;5037031;28;20048;-69
2023/07/26 06:33:34;;;;;;;4.70;2.90;;;12.90;99.90;;;;;;5036343;28;20098;-69
2023/07/26 06:35:59;;;;;;;5.22;2.80;;;12.90;99.90;;;;;;5054202;28;20032;-69
2023/07/26 06:38:25;;;;;;;4.25;2.45;;;13.00;99.90;;;;;;5040322;28;20112;-69
2023/07/26 06:40:50;;;;;;;4.63;2.45;;;13.10;99.90;;;;;;5058591;28;20131;-69
2023/07/26 06:43:16;;;;;;;5.57;2.28;;;13.30;99.90;;;;;;5045703;28;20428;-69
2023/07/26 06:45:46;;;;;;;7.05;3.25;;;13.30;99.90;;;;;;5023979;28;20040;-69
2023/07/26 06:48:12;;;;;;;5.05;2.55;;;13.40;99.90;;;;;;5041964;28;20044;-69
2023/07/26 06:50:41;;;;;;;3.65;2.38;;;13.40;99.90;;;;;;5029128;28;20060;-69
2023/07/26 06:53:07;;;;;;;4.82;2.35;;;13.50;99.90;;;;;;5053302;28;20098;-70
2023/07/26 06:55:34;;;;;;;3.65;2.45;;;13.50;99.90;;;;;;5056613;28;20044;-70
2023/07/26 06:57:59;;;;;;;4.28;2.38;;;13.50;99.90;;;;;;5046991;28;20055;-70
2023/07/26 07:00:25;;;;;;;4.75;2.65;;;13.60;99.90;;;;;;5067513;28;20036;-69
2023/07/26 07:03:01;;;;;;;4.70;2.45;;;13.50;99.90;;;;;;5051523;28;20586;-69
2023/07/26 07:05:33;;;;;;;3.85;2.40;;;13.40;99.90;;;;;;5050067;28;20044;-67
2023/07/26 07:07:59;;;;;;;3.97;2.35;;;13.40;99.90;;;;;;5034556;28;20108;-67
2023/07/26 07:10:25;;;;;;;4.43;2.70;;;13.30;99.90;;;;;;5052807;28;20129;-67
2023/07/26 07:12:50;;;;;;;4.28;2.67;;;13.30;99.90;;;;;;5049254;28;20033;-68
2023/07/26 07:15:16;;;;;;;3.83;2.60;;;13.30;99.90;;;;;;5049585;28;20481;-67
2023/07/26 07:17:42;;;;;;;4.43;2.42;;;13.40;99.90;;;;;;5070759;28;20090;-67
2023/07/26 07:20:08;;;;;;;4.05;2.70;;;13.40;99.90;;;;;;5047290;28;20040;-66
2023/07/26 07:22:34;;;;;;;4.53;2.72;;;13.40;99.90;;;;;;5053538;28;20041;-66
2023/07/26 07:25:00;;;;;;;9.32;3.45;;;13.30;99.90;;;;;;5067743;28;20051;-66
2023/07/26 07:27:26;;;;;;;15.77;3.90;;;13.30;99.90;;;;;;5036042;28;20044;-68
2023/07/26 07:29:51;;;;;;;7.68;3.63;;;12.90;99.90;;;;;;5067710;28;20044;-72
2023/07/26 07:32:18;;;;;;;6.57;3.75;;;12.80;99.90;;;;;;5067697;28;20118;-67
2023/07/26 07:34:44;;;;;;;8.18;4.10;;;12.90;99.90;;;;;;5036295;28;20062;-73
2023/07/26 07:37:09;;;;;;;10.95;4.40;;;12.70;99.90;;;;;;5050148;28;20072;-70
2023/07/26 07:39:36;;;;;;;7.28;4.13;;;12.70;99.90;;;;;;5067305;28;20079;-71
2023/07/26 07:42:01;;;;;;;7.47;4.43;;;12.70;99.90;;;;;;5050981;28;20390;-70
2023/07/26 07:44:28;;;;;;;7.85;4.53;;;12.80;99.90;;;;;;5041125;28;20147;-71
2023/07/26 07:46:54;;;;;;;8.00;4.20;;;12.80;99.90;;;;;;5048217;28;20040;-70
2023/07/26 07:49:19;;;;;;;8.25;4.03;;;12.90;99.90;;;;;;5043632;28;20040;-70
2023/07/26 07:51:45;;;;;;;13.32;4.07;;;12.70;99.90;;;;;;5067559;28;20173;-70
2023/07/26 07:54:10;;;;;;;9.45;3.95;;;12.90;99.90;;;;;;5042677;28;20426;-71
2023/07/26 07:56:36;;;;;;;8.05;4.00;;;12.90;99.90;;;;;;5059046;28;20557;-71
2023/07/26 07:59:01;;;;;;;6.97;3.55;;;12.90;99.90;;;;;;5039217;28;20068;-71
2023/07/26 08:01:27;;;;;;;8.35;4.05;;;13.00;99.90;;;;;;5012795;28;20041;-70
2023/07/26 08:03:52;;;;;;;8.90;4.43;;;12.80;99.90;;;;;;5052170;28;20064;-70
2023/07/26 08:06:19;;;;;;;9.23;4.65;;;13.10;99.90;;;;;;5044379;28;20127;-71
2023/07/26 08:08:45;;;;;;;10.82;4.40;;;13.00;99.90;;;;;;5039031;28;20045;-71
2023/07/26 08:11:10;;;;;;;7.97;4.40;;;13.20;99.90;;;;;;5046568;28;20093;-71
2023/07/26 08:13:36;;;;;;;7.45;4.20;;;13.30;99.90;;;;;;5033564;28;20587;-72
2023/07/26 08:16:02;;;;;;;6.47;3.75;;;13.40;99.90;;;;;;5022678;28;20625;-71
2023/07/26 08:18:28;;;;;;;6.15;3.20;;;13.70;99.90;;;;;;5032975;28;20360;-69
2023/07/26 08:20:53;;;;;;;6.25;2.92;;;13.50;99.90;;;;;;5044213;28;20082;-70
2023/07/26 08:23:19;;;;;;;4.20;3.00;;;13.40;99.90;;;;;;5064880;28;20068;-71
2023/07/26 08:25:45;;;;;;;4.22;2.58;;;13.70;99.90;;;;;;5043743;28;20037;-70
2023/07/26 08:28:10;;;;;;;6.70;2.58;;;14.20;99.90;;;;;;5049770;28;20066;-73
2023/07/26 08:30:37;;;;;;;4.03;2.22;;;14.30;99.90;;;;;;5050490;28;20076;-72
2023/07/26 08:33:02;;;;;;;4.30;2.22;;;14.20;99.90;;;;;;5051756;28;20056;-70
2023/07/26 08:35:29;;;;;;;4.15;2.40;;;14.10;99.90;;;;;;5061211;28;20689;-71
2023/07/26 08:37:54;;;;;;;3.45;2.13;;;13.80;99.90;;;;;;5067217;28;20140;-70
2023/07/26 08:40:20;;;;;;;3.95;2.15;;;13.90;99.90;;;;;;5052853;28;20143;-72
2023/07/26 08:42:46;;;;;;;3.35;2.17;;;14.00;99.90;;;;;;5033602;28;20436;-72
2023/07/26 08:45:13;;;;;;;2.85;2.10;;;14.30;99.90;;;;;;5067589;28;20060;-70
2023/07/26 08:47:39;;;;;;;4.35;2.45;;;14.40;99.90;;;;;;5049083;28;20057;-72
2023/07/26 08:50:06;;;;;;;4.68;2.80;;;14.80;99.90;;;;;;5029715;28;20813;-72
2023/07/26 08:52:32;;;;;;;6.10;3.25;;;15.20;99.90;;;;;;5069208;28;20037;-72
2023/07/26 08:54:59;;;;;;;4.43;2.83;;;15.60;99.90;;;;;;5048814;28;20083;-73
2023/07/26 08:57:25;;;;;;;3.90;2.85;;;15.90;99.90;;;;;;5033493;28;20391;-69
2023/07/26 08:59:51;;;;;;;4.75;2.90;;;16.30;99.90;;;;;;5047748;28;20100;-71
2023/07/26 09:02:19;;;;;;;4.00;2.60;;;17.00;99.90;;;;;;5049813;28;20044;-71
2023/07/26 09:04:46;;;;;;;4.47;2.75;;;17.10;99.90;;;;;;5069427;28;20080;-72
2023/07/26 09:07:12;;;;;;;4.32;2.92;;;17.10;99.90;;;;;;5048834;28;20059;-70
2023/07/26 09:09:38;;;;;;;5.15;2.55;;;16.90;99.90;;;;;;5048220;28;20036;-71
2023/07/26 09:12:05;;;;;;;3.83;2.45;;;16.70;99.90;;;;;;5048881;28;20041;-72
2023/07/26 09:14:32;;;;;;;5.13;2.60;;;16.80;99.90;;;;;;5063224;28;20334;-69
2023/07/26 09:16:59;;;;;;;3.33;2.63;;;17.00;99.90;;;;;;5077423;28;20452;-72
2023/07/26 09:19:29;;;;;;;4.32;3.10;;;17.20;99.90;;;;;;5065892;28;20055;-71
2023/07/26 09:22:03;;;;;;;3.70;2.38;;;17.20;99.90;;;;;;5047644;28;20113;-73
2023/07/26 09:24:34;;;;;;;4.25;2.53;;;17.70;99.90;;;;;;5064497;28;20048;-74
2023/07/26 09:27:07;;;;;;;3.42;2.78;;;18.60;99.90;;;;;;5049587;28;20051;-74
2023/07/26 09:29:34;;;;;;;2.83;2.50;;;18.60;99.90;;;;;;5067001;28;20102;-73
2023/07/26 09:32:00;;;;;;;3.97;2.42;;;18.80;99.90;;;;;;5067093;28;20128;-73
2023/07/26 09:34:26;;;;;;;4.82;2.65;;;19.30;99.90;;;;;;5068564;28;20045;-72
2023/07/26 09:36:52;;;;;;;4.80;3.00;;;19.40;99.90;;;;;;5066908;28;20037;-73
2023/07/26 09:39:20;;;;;;;3.42;2.42;;;19.70;99.90;;;;;;5041911;28;20063;-75
2023/07/26 09:41:46;;;;;;;4.00;2.35;;;20.00;97.80;;;;;;5067070;28;20119;-75
2023/07/26 09:44:18;;;;;;;3.10;2.08;;;20.00;97.10;;;;;;5048389;28;20060;-72
2023/07/26 09:46:52;;;;;;;3.63;2.20;;;19.90;94.90;;;;;;5049252;28;20400;-74
2023/07/26 09:49:19;;;;;;;2.50;2.03;;;20.00;94.20;;;;;;5065753;28;20201;-71
2023/07/26 09:51:45;;;;;;;2.10;1.90;;;20.10;94.70;;;;;;5047112;28;20036;-73
2023/07/26 09:54:11;;;;;;;3.75;1.92;;;19.60;91.90;;;;;;5059958;28;20052;-72
2023/07/26 09:56:40;;;;;;;2.17;1.92;;;19.40;92.10;;;;;;5039540;28;20447;-74
2023/07/26 09:59:10;;;;;;;2.17;1.75;;;18.90;90.80;;;;;;5050711;28;20044;-68
2023/07/26 10:01:44;;;;;;;2.72;1.70;;;19.10;91.20;;;;;;5040071;28;20045;-71
2023/07/26 10:04:15;;;;;;;3.13;1.75;;;19.00;88.40;;;;;;5063883;28;20047;-71
2023/07/26 10:06:42;;;;;;;2.15;1.50;;;19.80;85.30;;;;;;5047778;28;20076;-72
2023/07/26 10:09:16;;;;;;;2.67;1.42;;;20.90;83.50;;;;;;5051054;28;20079;-70
2023/07/26 10:11:43;;;;;;;2.95;1.80;;;21.50;77.00;;;;;;5063189;28;20093;-70
2023/07/26 10:14:12;;;;;;;1.85;1.48;;;20.90;75.30;;;;;;5056961;28;20123;-71
2023/07/26 10:16:38;;;;;;;3.63;2.15;;;20.50;75.60;;;;;;5033917;28;20242;-72
2023/07/26 10:19:05;;;;;;;2.30;1.75;;;19.90;75.50;;;;;;5027853;28;20046;-70
2023/07/26 10:21:31;;;;;;;2.40;1.63;;;19.50;77.40;;;;;;5030138;28;20067;-71
2023/07/26 10:24:00;;;;;;;2.75;1.55;;;19.10;77.90;;;;;;5024620;28;20044;-71
2023/07/26 10:26:30;;;;;;;3.00;1.30;;;19.20;77.20;;;;;;5048370;28;20040;-67
2023/07/26 10:28:59;;;;;;;1.50;0.98;;;19.60;72.30;;;;;;5046592;28;20048;-70
2023/07/26 10:31:32;;;;;;;1.38;1.00;;;20.00;73.70;;;;;;5048364;28;20044;-70
2023/07/26 10:33:58;;;;;;;1.33;1.10;;;21.00;69.90;;;;;;5031544;28;20376;-72
2023/07/26 10:36:32;;;;;;;4.80;1.73;;;21.70;68.20;;;;;;5054944;28;20033;-69
2023/07/26 10:39:08;;;;;;;1.50;1.23;;;22.70;66.80;;;;;;5034458;28;20045;-71
2023/07/26 10:41:35;;;;;;;2.53;1.48;;;23.40;57.70;;;;;;5042593;28;20068;-70
2023/07/26 10:44:05;;;;;;;1.70;1.40;;;24.00;60.40;;;;;;5042093;28;20056;-71
2023/07/26 10:46:47;;;;;;;2.65;1.45;;;24.10;58.60;;;;;;5062500;28;20042;-70
2023/07/26 10:49:26;;;;;;;2.38;1.33;;;23.30;59.50;;;;;;5031454;28;20110;-71
2023/07/26 10:52:02;;;;;;;3.05;1.83;;;22.90;58.20;;;;;;5053542;28;20119;-69
2023/07/26 10:54:41;;;;;;;2.47;1.67;;;22.20;61.70;;;;;;5051203;28;20056;-69
2023/07/26 10:57:20;;;;;;;2.17;1.30;;;21.50;62.70;;;;;;5051918;28;20432;-72
2023/07/26 10:59:51;;;;;;;2.45;1.40;;;21.10;60.30;;;;;;5025045;28;20037;-69
2023/07/26 11:02:34;;;;;;;;;;;21.00;63.00;;;;;;5047174;28;20032;-70
2023/07/26 11:05:01;;;;;;;2.80;1.88;;;20.60;61.60;;;;;;5048719;28;19939;-70
2023/07/26 11:07:49;;;;;;;3.50;2.15;;;20.40;63.40;;;;;;5066442;28;20051;-69
2023/07/26 11:10:19;;;;;;;2.88;2.17;;;20.30;60.60;;;;;;5066297;28;20082;-70
2023/07/26 11:12:48;;;;;;;2.63;1.70;;;20.40;61.90;;;;;;5066019;28;20048;-69
2023/07/26 11:15:15;;;;;;;4.20;2.03;;;20.40;63.10;;;;;;5060308;28;20048;-68
2023/07/26 11:17:42;;;;;;;1.77;1.20;;;20.50;63.20;;;;;;5066478;28;20522;-71
2023/07/26 11:20:10;;;;;;;2.83;1.45;;;20.00;60.40;;;;;;5034649;28;20368;-71
2023/07/26 11:22:36;;;;;;;2.50;1.33;;;19.90;62.20;;;;;;5040894;28;20053;-68
2023/07/26 11:25:05;;;;;;;2.53;1.58;;;20.00;64.20;;;;;;5043160;28;20044;-66
2023/07/26 11:27:33;;;;;;;3.60;1.70;;;20.00;63.40;;;;;;5063546;28;20105;-69
2023/07/26 11:30:02;;;;;;;2.90;1.40;;;20.20;64.00;;;;;;5045470;28;20051;-71
2023/07/26 11:32:28;;;;;;;4.65;1.80;;;20.20;61.90;;;;;;5040389;28;20063;-68
2023/07/26 11:34:58;;;;;;;2.13;1.60;;;19.80;64.10;;;;;;5066271;28;20366;-71
2023/07/26 11:37:24;;;;;;;3.40;1.60;;;19.80;62.10;;;;;;5046202;28;20041;-69
2023/07/26 11:40:08;;;;;;;2.88;1.48;;;19.90;63.60;;;;;;5044150;28;20037;-70
2023/07/26 11:42:34;;;;;;;2.88;1.40;;;20.00;62.80;;;;;;5060007;28;20051;-69
2023/07/26 11:45:05;;;;;;;3.13;1.48;;;19.80;63.90;;;;;;5058885;28;20336;-68
2023/07/26 11:47:35;;;;;;;1.70;1.13;;;19.80;63.40;;;;;;5065847;28;20047;-67
2023/07/26 11:50:04;;;;;;;1.50;1.13;;;19.70;61.00;;;;;;5065387;28;20178;-68
2023/07/26 11:52:31;;;;;;;2.85;1.00;;;19.80;62.40;;;;;;5065521;28;20112;-67
2023/07/26 11:54:58;;;;;;;1.40;1.00;;;20.20;62.40;;;;;;5067499;28;20137;-68
2023/07/26 11:57:28;;;;;;;1.75;0.80;;;20.40;61.80;;;;;;5063357;28;20067;-70
2023/07/26 11:59:59;;;;;;;;;;;20.50;61.30;;;;;;5070392;28;20353;-67
2023/07/26 12:02:26;;;;;;;0.60;0.47;;;20.50;57.60;;;;;;5065452;28;19920;-67
2023/07/26 12:05:14;;;;;;;1.50;0.65;;;20.40;60.40;;;;;;5067325;28;20060;-67
2023/07/26 12:07:47;;;;;;;1.02;0.70;;;20.30;58.30;;;;;;5061743;28;20055;-69
2023/07/26 12:10:13;;;;;;;1.00;0.70;;;20.60;59.80;;;;;;5062799;28;20182;-66
2023/07/26 12:12:40;;;;;;;1.85;0.85;;;20.80;59.90;;;;;;5052796;28;20549;-66
2023/07/26 12:15:08;;;;;;;1.92;0.80;;;20.90;60.00;;;;;;5045211;28;20055;-67
2023/07/26 12:17:34;;;;;;;2.50;0.70;;;21.40;59.50;;;;;;5037078;28;20032;-68
2023/07/26 12:20:04;;;;;;;1.35;1.10;;;21.90;59.10;;;;;;5064341;28;20029;-68
2023/07/26 12:22:30;;;;;;;0.95;0.80;;;22.00;56.00;;;;;;5057624;28;20177;-70
2023/07/26 12:25:02;;;;;;;1.02;0.70;;;22.10;56.10;;;;;;5066900;28;20515;-67
2023/07/26 12:27:33;;;;;;;2.25;1.00;;;22.20;56.80;;;;;;5067887;28;20076;-68
2023/07/26 12:29:59;;;;;;;1.52;1.10;;;22.40;57.40;;;;;;5063197;28;20360;-67
2023/07/26 12:32:25;;;;;;;2.65;1.10;;;22.90;56.10;;;;;;5063942;28;20048;-67
2023/07/26 12:34:50;;;;;;;0.80;0.63;;;23.30;56.00;;;;;;5064353;28;20055;-71
2023/07/26 12:37:16;;;;;;;1.08;0.70;;;23.10;56.20;;;;;;5067542;28;20060;-66
2023/07/26 12:39:42;;;;;;;1.05;0.75;;;22.90;57.00;;;;;;5051345;28;20036;-66
2023/07/26 12:42:08;;;;;;;2.35;0.80;;;22.40;57.70;;;;;;5064320;28;20501;-67
2023/07/26 12:44:34;;;;;;;1.23;0.80;;;22.00;59.00;;;;;;5068982;28;20053;-67
2023/07/26 12:47:00;;;;;;;2.38;0.95;;;21.60;60.10;;;;;;5056556;28;20054;-67